sensor_id;sensor_type;location;lat;lon;timestamp;P1;durP1;ratioP1;P2;durP2;ratioP2
8538;SDS011;4307;53.868;11.680;2023-05-07T00:00:52;11.07;;;8.70;;
8538;SDS011;4307;53.868;11.680;2023-05-07T00:03:18;12.00;;;8.90;;
8538;SDS011;4307;53.868;11.680;2023-05-07T00:05:45;11.77;;;8.50;;
8538;SDS011;4307;53.868;11.680;2023-05-07T00:08:13;13.10;;;9.53;;
8538;SDS011;4307;53.868;11.680;2023-05-07T00:10:40;12.13;;;8.77;;
8538;SDS011;4307;53.868;11.680;2023-05-07T00:13:07;10.60;;;8.80;;
8538;SDS011;4307;53.868;11.680;2023-05-07T00:15:33;15.03;;;8.33;;
8538;SDS011;4307;53.868;11.680;2023-05-07T00:18:01;12.47;;;8.57;;
8538;SDS011;4307;53.868;11.680;2023-05-07T00:20:28;12.03;;;8.43;;
8538;SDS011;4307;53.868;11.680;2023-05-07T00:22:55;11.17;;;8.03;;
8538;SDS011;4307;53.868;11.680;2023-05-07T00:25:21;10.30;;;8.37;;
8538;SDS011;4307;53.868;11.680;2023-05-07T00:27:48;13.53;;;8.63;;
8538;SDS011;4307;53.868;11.680;2023-05-07T00:30:15;12.87;;;8.20;;
8538;SDS011;4307;53.868;11.680;2023-05-07T00:32:41;9.97;;;8.23;;
8538;SDS011;4307;53.868;11.680;2023-05-07T00:35:11;11.93;;;8.23;;
8538;SDS011;4307;53.868;11.680;2023-05-07T00:37:38;9.70;;;8.37;;
8538;SDS011;4307;53.868;11.680;2023-05-07T00:40:05;11.37;;;8.27;;
8538;SDS011;4307;53.868;11.680;2023-05-07T00:42:33;9.67;;;7.93;;
8538;SDS011;4307;53.868;11.680;2023-05-07T00:44:59;11.03;;;8.13;;
8538;SDS011;4307;53.868;11.680;2023-05-07T00:47:26;8.77;;;7.57;;
8538;SDS011;4307;53.868;11.680;2023-05-07T00:49:53;10.43;;;7.90;;
8538;SDS011;4307;53.868;11.680;2023-05-07T00:52:21;9.23;;;7.33;;
8538;SDS011;4307;53.868;11.680;2023-05-07T00:54:51;10.17;;;7.93;;
8538;SDS011;4307;53.868;11.680;2023-05-07T00:57:18;11.90;;;7.53;;
8538;SDS011;4307;53.868;11.680;2023-05-07T00:59:46;7.90;;;7.10;;
8538;SDS011;4307;53.868;11.680;2023-05-07T01:02:13;10.00;;;7.50;;
8538;SDS011;4307;53.868;11.680;2023-05-07T01:04:40;12.87;;;8.07;;
8538;SDS011;4307;53.868;11.680;2023-05-07T01:07:06;12.13;;;7.70;;
8538;SDS011;4307;53.868;11.680;2023-05-07T01:09:35;9.83;;;8.23;;
8538;SDS011;4307;53.868;11.680;2023-05-07T01:12:03;10.30;;;8.67;;
8538;SDS011;4307;53.868;11.680;2023-05-07T01:14:30;9.83;;;7.63;;
8538;SDS011;4307;53.868;11.680;2023-05-07T01:16:58;12.70;;;8.20;;
8538;SDS011;4307;53.868;11.680;2023-05-07T01:19:25;12.10;;;9.73;;
8538;SDS011;4307;53.868;11.680;2023-05-07T01:21:52;13.90;;;8.57;;
8538;SDS011;4307;53.868;11.680;2023-05-07T01:24:28;11.63;;;7.90;;
8538;SDS011;4307;53.868;11.680;2023-05-07T01:26:56;10.93;;;8.17;;
8538;SDS011;4307;53.868;11.680;2023-05-07T01:29:22;10.70;;;8.30;;
8538;SDS011;4307;53.868;11.680;2023-05-07T01:31:49;13.63;;;8.53;;
8538;SDS011;4307;53.868;11.680;2023-05-07T01:34:17;10.53;;;8.13;;
8538;SDS011;4307;53.868;11.680;2023-05-07T01:36:46;11.00;;;8.97;;
8538;SDS011;4307;53.868;11.680;2023-05-07T01:39:13;13.40;;;7.97;;
8538;SDS011;4307;53.868;11.680;2023-05-07T01:41:43;12.60;;;8.43;;
8538;SDS011;4307;53.868;11.680;2023-05-07T01:44:10;9.97;;;8.30;;
8538;SDS011;4307;53.868;11.680;2023-05-07T01:46:39;12.23;;;8.07;;
8538;SDS011;4307;53.868;11.680;2023-05-07T01:49:06;14.80;;;8.60;;
8538;SDS011;4307;53.868;11.680;2023-05-07T01:51:33;14.53;;;8.13;;
8538;SDS011;4307;53.868;11.680;2023-05-07T01:54:00;11.07;;;8.50;;
8538;SDS011;4307;53.868;11.680;2023-05-07T01:56:27;10.73;;;8.47;;
8538;SDS011;4307;53.868;11.680;2023-05-07T01:58:55;13.63;;;8.20;;
8538;SDS011;4307;53.868;11.680;2023-05-07T02:01:21;11.53;;;8.23;;
8538;SDS011;4307;53.868;11.680;2023-05-07T02:03:48;10.97;;;8.30;;
8538;SDS011;4307;53.868;11.680;2023-05-07T02:06:15;11.30;;;7.93;;
8538;SDS011;4307;53.868;11.680;2023-05-07T02:08:41;11.93;;;8.50;;
8538;SDS011;4307;53.868;11.680;2023-05-07T02:11:08;11.87;;;8.23;;
8538;SDS011;4307;53.868;11.680;2023-05-07T02:13:35;10.80;;;7.37;;
8538;SDS011;4307;53.868;11.680;2023-05-07T02:16:04;10.70;;;7.57;;
8538;SDS011;4307;53.868;11.680;2023-05-07T02:18:31;15.57;;;8.50;;
8538;SDS011;4307;53.868;11.680;2023-05-07T02:20:58;10.60;;;8.00;;
8538;SDS011;4307;53.868;11.680;2023-05-07T02:23:25;12.23;;;8.23;;
8538;SDS011;4307;53.868;11.680;2023-05-07T02:25:51;11.47;;;8.53;;
8538;SDS011;4307;53.868;11.680;2023-05-07T02:28:18;12.80;;;8.57;;
8538;SDS011;4307;53.868;11.680;2023-05-07T02:30:45;12.13;;;8.63;;
8538;SDS011;4307;53.868;11.680;2023-05-07T02:33:13;11.77;;;8.20;;
8538;SDS011;4307;53.868;11.680;2023-05-07T02:35:39;10.73;;;7.73;;
8538;SDS011;4307;53.868;11.680;2023-05-07T02:38:06;10.60;;;7.53;;
8538;SDS011;4307;53.868;11.680;2023-05-07T02:40:35;12.30;;;7.73;;
8538;SDS011;4307;53.868;11.680;2023-05-07T02:43:03;10.40;;;8.10;;
8538;SDS011;4307;53.868;11.680;2023-05-07T02:45:30;9.50;;;8.00;;
8538;SDS011;4307;53.868;11.680;2023-05-07T02:47:57;10.57;;;8.40;;
8538;SDS011;4307;53.868;11.680;2023-05-07T02:50:25;10.43;;;8.53;;
8538;SDS011;4307;53.868;11.680;2023-05-07T02:52:52;12.13;;;8.13;;
8538;SDS011;4307;53.868;11.680;2023-05-07T02:55:18;10.23;;;8.50;;
8538;SDS011;4307;53.868;11.680;2023-05-07T02:57:45;11.20;;;8.53;;
8538;SDS011;4307;53.868;11.680;2023-05-07T03:00:12;10.17;;;8.27;;
8538;SDS011;4307;53.868;11.680;2023-05-07T03:02:40;12.30;;;8.33;;
8538;SDS011;4307;53.868;11.680;2023-05-07T03:05:06;11.97;;;8.50;;
8538;SDS011;4307;53.868;11.680;2023-05-07T03:07:35;12.13;;;8.33;;
8538;SDS011;4307;53.868;11.680;2023-05-07T03:10:02;12.97;;;8.97;;
8538;SDS011;4307;53.868;11.680;2023-05-07T03:12:28;10.83;;;7.70;;
8538;SDS011;4307;53.868;11.680;2023-05-07T03:14:56;11.77;;;8.63;;
8538;SDS011;4307;53.868;11.680;2023-05-07T03:17:22;12.13;;;8.80;;
8538;SDS011;4307;53.868;11.680;2023-05-07T03:19:49;13.20;;;8.53;;
8538;SDS011;4307;53.868;11.680;2023-05-07T03:22:16;10.73;;;8.37;;
8538;SDS011;4307;53.868;11.680;2023-05-07T03:24:44;11.73;;;8.47;;
8538;SDS011;4307;53.868;11.680;2023-05-07T03:27:10;12.30;;;8.30;;
8538;SDS011;4307;53.868;11.680;2023-05-07T03:29:37;9.63;;;8.30;;
8538;SDS011;4307;53.868;11.680;2023-05-07T03:32:04;10.83;;;7.70;;
8538;SDS011;4307;53.868;11.680;2023-05-07T03:34:31;8.90;;;7.97;;
8538;SDS011;4307;53.868;11.680;2023-05-07T03:36:58;12.57;;;8.20;;
8538;SDS011;4307;53.868;11.680;2023-05-07T03:39:24;11.07;;;8.17;;
8538;SDS011;4307;53.868;11.680;2023-05-07T03:41:53;9.07;;;6.60;;
8538;SDS011;4307;53.868;11.680;2023-05-07T03:44:19;10.77;;;8.40;;
8538;SDS011;4307;53.868;11.680;2023-05-07T03:46:46;11.20;;;7.63;;
8538;SDS011;4307;53.868;11.680;2023-05-07T03:49:13;11.37;;;7.77;;
8538;SDS011;4307;53.868;11.680;2023-05-07T03:51:39;11.03;;;7.40;;
8538;SDS011;4307;53.868;11.680;2023-05-07T03:54:06;12.43;;;8.57;;
8538;SDS011;4307;53.868;11.680;2023-05-07T03:56:33;10.80;;;8.43;;
8538;SDS011;4307;53.868;11.680;2023-05-07T03:59:01;10.87;;;8.83;;
8538;SDS011;4307;53.868;11.680;2023-05-07T04:01:28;11.13;;;8.70;;
8538;SDS011;4307;53.868;11.680;2023-05-07T04:03:55;10.00;;;7.77;;
8538;SDS011;4307;53.868;11.680;2023-05-07T04:06:21;10.30;;;8.03;;
8538;SDS011;4307;53.868;11.680;2023-05-07T04:08:49;10.83;;;7.90;;
8538;SDS011;4307;53.868;11.680;2023-05-07T04:11:15;10.90;;;7.47;;
8538;SDS011;4307;53.868;11.680;2023-05-07T04:13:42;11.77;;;8.53;;
8538;SDS011;4307;53.868;11.680;2023-05-07T04:16:10;9.70;;;8.13;;
8538;SDS011;4307;53.868;11.680;2023-05-07T04:18:37;6.50;;;5.90;;
8538;SDS011;4307;53.868;11.680;2023-05-07T04:21:04;10.10;;;8.13;;
8538;SDS011;4307;53.868;11.680;2023-05-07T04:23:30;9.10;;;8.03;;
8538;SDS011;4307;53.868;11.680;2023-05-07T04:25:57;9.90;;;8.30;;
8538;SDS011;4307;53.868;11.680;2023-05-07T04:28:24;11.77;;;8.70;;
8538;SDS011;4307;53.868;11.680;2023-05-07T04:30:51;10.60;;;8.37;;
8538;SDS011;4307;53.868;11.680;2023-05-07T04:33:19;10.00;;;8.00;;
8538;SDS011;4307;53.868;11.680;2023-05-07T04:35:45;9.43;;;7.90;;
8538;SDS011;4307;53.868;11.680;2023-05-07T04:38:12;12.40;;;8.63;;
8538;SDS011;4307;53.868;11.680;2023-05-07T04:40:38;11.07;;;8.13;;
8538;SDS011;4307;53.868;11.680;2023-05-07T04:43:06;11.27;;;7.67;;
8538;SDS011;4307;53.868;11.680;2023-05-07T04:45:34;11.53;;;8.60;;
8538;SDS011;4307;53.868;11.680;2023-05-07T04:48:01;9.47;;;7.63;;
8538;SDS011;4307;53.868;11.680;2023-05-07T04:50:29;13.37;;;8.43;;
8538;SDS011;4307;53.868;11.680;2023-05-07T04:52:56;12.27;;;9.10;;
8538;SDS011;4307;53.868;11.680;2023-05-07T04:55:22;10.43;;;8.60;;
8538;SDS011;4307;53.868;11.680;2023-05-07T04:57:49;9.93;;;7.93;;
8538;SDS011;4307;53.868;11.680;2023-05-07T05:00:16;12.80;;;9.00;;
8538;SDS011;4307;53.868;11.680;2023-05-07T05:02:44;12.30;;;8.60;;
8538;SDS011;4307;53.868;11.680;2023-05-07T05:05:11;11.60;;;8.83;;
8538;SDS011;4307;53.868;11.680;2023-05-07T05:07:39;10.30;;;8.23;;
8538;SDS011;4307;53.868;11.680;2023-05-07T05:10:06;12.37;;;8.90;;
8538;SDS011;4307;53.868;11.680;2023-05-07T05:12:32;12.47;;;9.00;;
8538;SDS011;4307;53.868;11.680;2023-05-07T05:14:59;11.33;;;8.53;;
8538;SDS011;4307;53.868;11.680;2023-05-07T05:17:26;11.53;;;8.80;;
8538;SDS011;4307;53.868;11.680;2023-05-07T05:19:52;15.87;;;8.50;;
8538;SDS011;4307;53.868;11.680;2023-05-07T05:22:19;12.33;;;8.87;;
8538;SDS011;4307;53.868;11.680;2023-05-07T05:24:47;11.83;;;8.40;;
8538;SDS011;4307;53.868;11.680;2023-05-07T05:27:13;10.53;;;8.30;;
8538;SDS011;4307;53.868;11.680;2023-05-07T05:29:40;10.23;;;8.23;;
8538;SDS011;4307;53.868;11.680;2023-05-07T05:32:07;12.43;;;8.57;;
8538;SDS011;4307;53.868;11.680;2023-05-07T05:34:33;10.40;;;7.67;;
8538;SDS011;4307;53.868;11.680;2023-05-07T05:37:00;10.93;;;8.27;;
8538;SDS011;4307;53.868;11.680;2023-05-07T05:39:27;11.13;;;7.73;;
8538;SDS011;4307;53.868;11.680;2023-05-07T05:41:55;9.93;;;7.97;;
8538;SDS011;4307;53.868;11.680;2023-05-07T05:44:22;12.13;;;7.93;;
8538;SDS011;4307;53.868;11.680;2023-05-07T05:46:48;11.37;;;7.43;;
8538;SDS011;4307;53.868;11.680;2023-05-07T05:49:15;9.20;;;7.93;;
8538;SDS011;4307;53.868;11.680;2023-05-07T05:51:42;9.30;;;6.93;;
8538;SDS011;4307;53.868;11.680;2023-05-07T05:54:09;9.93;;;7.53;;
8538;SDS011;4307;53.868;11.680;2023-05-07T05:56:36;11.50;;;8.20;;
8538;SDS011;4307;53.868;11.680;2023-05-07T05:59:04;8.47;;;7.37;;
8538;SDS011;4307;53.868;11.680;2023-05-07T06:01:31;16.10;;;8.07;;
8538;SDS011;4307;53.868;11.680;2023-05-07T06:03:58;10.87;;;7.83;;
8538;SDS011;4307;53.868;11.680;2023-05-07T06:06:25;10.57;;;7.13;;
8538;SDS011;4307;53.868;11.680;2023-05-07T06:08:52;8.03;;;7.23;;
8538;SDS011;4307;53.868;11.680;2023-05-07T06:11:19;9.00;;;7.13;;
8538;SDS011;4307;53.868;11.680;2023-05-07T06:13:46;8.17;;;6.77;;
8538;SDS011;4307;53.868;11.680;2023-05-07T06:16:14;10.10;;;7.37;;
8538;SDS011;4307;53.868;11.680;2023-05-07T06:18:41;10.83;;;7.63;;
8538;SDS011;4307;53.868;11.680;2023-05-07T06:21:07;8.87;;;7.07;;
8538;SDS011;4307;53.868;11.680;2023-05-07T06:23:35;10.20;;;6.90;;
8538;SDS011;4307;53.868;11.680;2023-05-07T06:26:02;9.40;;;6.83;;
8538;SDS011;4307;53.868;11.680;2023-05-07T06:28:29;7.43;;;6.50;;
8538;SDS011;4307;53.868;11.680;2023-05-07T06:31:10;7.10;;;6.27;;
8538;SDS011;4307;53.868;11.680;2023-05-07T06:33:39;11.43;;;6.60;;
8538;SDS011;4307;53.868;11.680;2023-05-07T06:36:06;7.83;;;6.47;;
8538;SDS011;4307;53.868;11.680;2023-05-07T06:38:33;9.93;;;6.70;;
8538;SDS011;4307;53.868;11.680;2023-05-07T06:40:59;8.27;;;6.37;;
8538;SDS011;4307;53.868;11.680;2023-05-07T06:43:26;8.93;;;7.10;;
8538;SDS011;4307;53.868;11.680;2023-05-07T06:45:53;8.63;;;6.30;;
8538;SDS011;4307;53.868;11.680;2023-05-07T06:48:19;7.80;;;6.33;;
8538;SDS011;4307;53.868;11.680;2023-05-07T06:50:47;6.90;;;5.73;;
8538;SDS011;4307;53.868;11.680;2023-05-07T06:53:14;9.60;;;6.60;;
8538;SDS011;4307;53.868;11.680;2023-05-07T06:55:41;8.60;;;6.07;;
8538;SDS011;4307;53.868;11.680;2023-05-07T06:58:07;8.30;;;6.00;;
8538;SDS011;4307;53.868;11.680;2023-05-07T07:00:34;7.97;;;5.50;;
8538;SDS011;4307;53.868;11.680;2023-05-07T07:03:01;6.73;;;5.70;;
8538;SDS011;4307;53.868;11.680;2023-05-07T07:05:27;8.13;;;5.10;;
8538;SDS011;4307;53.868;11.680;2023-05-07T07:07:55;8.90;;;5.73;;
8538;SDS011;4307;53.868;11.680;2023-05-07T07:10:22;5.53;;;4.90;;
8538;SDS011;4307;53.868;11.680;2023-05-07T07:12:49;6.20;;;5.53;;
8538;SDS011;4307;53.868;11.680;2023-05-07T07:15:17;5.80;;;5.13;;
8538;SDS011;4307;53.868;11.680;2023-05-07T07:17:45;5.33;;;4.50;;
8538;SDS011;4307;53.868;11.680;2023-05-07T07:20:12;5.20;;;4.40;;
8538;SDS011;4307;53.868;11.680;2023-05-07T07:22:39;6.23;;;4.47;;
8538;SDS011;4307;53.868;11.680;2023-05-07T07:25:07;6.23;;;4.47;;
8538;SDS011;4307;53.868;11.680;2023-05-07T07:27:36;5.37;;;4.50;;
8538;SDS011;4307;53.868;11.680;2023-05-07T07:30:03;5.27;;;4.50;;
8538;SDS011;4307;53.868;11.680;2023-05-07T07:32:30;8.80;;;6.57;;
8538;SDS011;4307;53.868;11.680;2023-05-07T07:34:58;7.07;;;4.60;;
8538;SDS011;4307;53.868;11.680;2023-05-07T07:37:25;6.53;;;5.33;;
8538;SDS011;4307;53.868;11.680;2023-05-07T07:39:51;4.53;;;4.03;;
8538;SDS011;4307;53.868;11.680;2023-05-07T07:42:19;5.13;;;4.20;;
8538;SDS011;4307;53.868;11.680;2023-05-07T07:44:46;5.53;;;4.20;;
8538;SDS011;4307;53.868;11.680;2023-05-07T07:47:14;6.03;;;3.73;;
8538;SDS011;4307;53.868;11.680;2023-05-07T07:49:40;6.33;;;4.60;;
8538;SDS011;4307;53.868;11.680;2023-05-07T07:52:07;5.50;;;4.60;;
8538;SDS011;4307;53.868;11.680;2023-05-07T07:54:34;4.00;;;3.60;;
8538;SDS011;4307;53.868;11.680;2023-05-07T07:57:00;7.43;;;4.33;;
8538;SDS011;4307;53.868;11.680;2023-05-07T07:59:28;6.87;;;3.77;;
8538;SDS011;4307;53.868;11.680;2023-05-07T08:01:55;3.80;;;3.50;;
8538;SDS011;4307;53.868;11.680;2023-05-07T08:04:22;3.37;;;3.07;;
8538;SDS011;4307;53.868;11.680;2023-05-07T08:06:49;6.43;;;3.70;;
8538;SDS011;4307;53.868;11.680;2023-05-07T08:09:15;5.60;;;3.80;;
8538;SDS011;4307;53.868;11.680;2023-05-07T08:11:42;3.87;;;3.33;;
8538;SDS011;4307;53.868;11.680;2023-05-07T08:14:09;4.20;;;3.10;;
8538;SDS011;4307;53.868;11.680;2023-05-07T08:16:37;6.17;;;3.43;;
8538;SDS011;4307;53.868;11.680;2023-05-07T08:19:03;3.30;;;3.00;;
8538;SDS011;4307;53.868;11.680;2023-05-07T08:21:30;3.90;;;2.90;;
8538;SDS011;4307;53.868;11.680;2023-05-07T08:23:57;3.43;;;3.13;;
8538;SDS011;4307;53.868;11.680;2023-05-07T08:26:24;3.03;;;2.80;;
8538;SDS011;4307;53.868;11.680;2023-05-07T08:28:50;3.33;;;2.80;;
8538;SDS011;4307;53.868;11.680;2023-05-07T08:31:17;3.40;;;3.10;;
8538;SDS011;4307;53.868;11.680;2023-05-07T08:33:45;4.17;;;2.70;;
8538;SDS011;4307;53.868;11.680;2023-05-07T08:36:12;3.57;;;2.70;;
8538;SDS011;4307;53.868;11.680;2023-05-07T08:38:38;5.43;;;2.23;;
8538;SDS011;4307;53.868;11.680;2023-05-07T08:41:09;3.90;;;2.77;;
8538;SDS011;4307;53.868;11.680;2023-05-07T08:43:36;4.80;;;2.53;;
8538;SDS011;4307;53.868;11.680;2023-05-07T08:46:05;3.03;;;2.73;;
8538;SDS011;4307;53.868;11.680;2023-05-07T08:48:32;4.13;;;2.67;;
8538;SDS011;4307;53.868;11.680;2023-05-07T08:51:00;2.90;;;2.60;;
8538;SDS011;4307;53.868;11.680;2023-05-07T08:53:27;4.27;;;2.70;;
8538;SDS011;4307;53.868;11.680;2023-05-07T08:55:54;3.00;;;2.70;;
8538;SDS011;4307;53.868;11.680;2023-05-07T08:58:21;3.00;;;2.70;;
8538;SDS011;4307;53.868;11.680;2023-05-07T09:00:48;3.73;;;2.90;;
8538;SDS011;4307;53.868;11.680;2023-05-07T09:03:15;4.67;;;2.67;;
8538;SDS011;4307;53.868;11.680;2023-05-07T09:05:41;3.67;;;3.23;;
8538;SDS011;4307;53.868;11.680;2023-05-07T09:08:10;3.47;;;2.77;;
8538;SDS011;4307;53.868;11.680;2023-05-07T09:10:40;3.50;;;3.10;;
8538;SDS011;4307;53.868;11.680;2023-05-07T09:13:07;4.87;;;2.93;;
8538;SDS011;4307;53.868;11.680;2023-05-07T09:15:34;2.67;;;2.47;;
8538;SDS011;4307;53.868;11.680;2023-05-07T09:18:00;2.77;;;2.57;;
8538;SDS011;4307;53.868;11.680;2023-05-07T09:20:27;3.13;;;2.60;;
8538;SDS011;4307;53.868;11.680;2023-05-07T09:22:56;4.00;;;2.90;;
8538;SDS011;4307;53.868;11.680;2023-05-07T09:25:28;4.60;;;3.00;;
8538;SDS011;4307;53.868;11.680;2023-05-07T09:27:56;3.13;;;2.73;;
8538;SDS011;4307;53.868;11.680;2023-05-07T09:30:26;2.80;;;2.60;;
8538;SDS011;4307;53.868;11.680;2023-05-07T09:32:54;3.10;;;2.90;;
8538;SDS011;4307;53.868;11.680;2023-05-07T09:35:21;3.23;;;2.57;;
8538;SDS011;4307;53.868;11.680;2023-05-07T09:37:49;3.17;;;2.77;;
8538;SDS011;4307;53.868;11.680;2023-05-07T09:40:22;3.50;;;2.63;;
8538;SDS011;4307;53.868;11.680;2023-05-07T09:42:51;2.63;;;2.43;;
8538;SDS011;4307;53.868;11.680;2023-05-07T09:45:21;3.50;;;2.47;;
8538;SDS011;4307;53.868;11.680;2023-05-07T09:47:48;3.03;;;2.50;;
8538;SDS011;4307;53.868;11.680;2023-05-07T09:50:19;3.30;;;2.70;;
8538;SDS011;4307;53.868;11.680;2023-05-07T09:52:51;2.77;;;2.53;;
8538;SDS011;4307;53.868;11.680;2023-05-07T09:55:18;3.90;;;2.63;;
8538;SDS011;4307;53.868;11.680;2023-05-07T09:57:45;2.97;;;2.60;;
8538;SDS011;4307;53.868;11.680;2023-05-07T10:00:14;2.73;;;2.40;;
8538;SDS011;4307;53.868;11.680;2023-05-07T10:02:43;3.07;;;2.40;;
8538;SDS011;4307;53.868;11.680;2023-05-07T10:05:14;4.77;;;2.40;;
8538;SDS011;4307;53.868;11.680;2023-05-07T10:07:41;3.43;;;2.50;;
8538;SDS011;4307;53.868;11.680;2023-05-07T10:10:08;2.83;;;2.63;;
8538;SDS011;4307;53.868;11.680;2023-05-07T10:12:35;3.07;;;2.37;;
8538;SDS011;4307;53.868;11.680;2023-05-07T10:15:05;2.40;;;2.07;;
8538;SDS011;4307;53.868;11.680;2023-05-07T10:17:34;5.03;;;2.10;;
8538;SDS011;4307;53.868;11.680;2023-05-07T10:20:02;3.43;;;2.40;;
8538;SDS011;4307;53.868;11.680;2023-05-07T10:22:30;2.83;;;2.60;;
8538;SDS011;4307;53.868;11.680;2023-05-07T10:25:03;3.03;;;2.80;;
8538;SDS011;4307;53.868;11.680;2023-05-07T10:27:32;3.30;;;2.90;;
8538;SDS011;4307;53.868;11.680;2023-05-07T10:30:00;3.33;;;3.00;;
8538;SDS011;4307;53.868;11.680;2023-05-07T10:32:38;3.67;;;2.53;;
8538;SDS011;4307;53.868;11.680;2023-05-07T10:35:10;6.30;;;2.83;;
8538;SDS011;4307;53.868;11.680;2023-05-07T10:37:40;2.87;;;2.50;;
8538;SDS011;4307;53.868;11.680;2023-05-07T10:40:07;2.73;;;2.23;;
8538;SDS011;4307;53.868;11.680;2023-05-07T10:42:36;2.53;;;2.10;;
8538;SDS011;4307;53.868;11.680;2023-05-07T10:45:12;3.00;;;2.70;;
8538;SDS011;4307;53.868;11.680;2023-05-07T10:50:37;2.73;;;2.50;;
8538;SDS011;4307;53.868;11.680;2023-05-07T10:53:20;3.73;;;2.90;;
8538;SDS011;4307;53.868;11.680;2023-05-07T11:02:07;3.07;;;2.63;;
8538;SDS011;4307;53.868;11.680;2023-05-07T11:04:37;3.03;;;2.80;;
8538;SDS011;4307;53.868;11.680;2023-05-07T11:07:14;4.93;;;2.20;;
8538;SDS011;4307;53.868;11.680;2023-05-07T11:09:57;3.87;;;2.83;;
8538;SDS011;4307;53.868;11.680;2023-05-07T11:12:51;3.53;;;2.67;;
8538;SDS011;4307;53.868;11.680;2023-05-07T11:15:35;3.17;;;2.53;;
8538;SDS011;4307;53.868;11.680;2023-05-07T11:18:06;2.77;;;2.40;;
8538;SDS011;4307;53.868;11.680;2023-05-07T11:26:43;2.90;;;2.53;;
8538;SDS011;4307;53.868;11.680;2023-05-07T11:29:12;3.20;;;2.87;;
8538;SDS011;4307;53.868;11.680;2023-05-07T11:31:39;3.50;;;2.80;;
8538;SDS011;4307;53.868;11.680;2023-05-07T11:34:06;3.53;;;2.53;;
8538;SDS011;4307;53.868;11.680;2023-05-07T11:36:35;3.20;;;3.00;;
8538;SDS011;4307;53.868;11.680;2023-05-07T11:39:12;3.00;;;2.43;;
8538;SDS011;4307;53.868;11.680;2023-05-07T11:41:49;5.17;;;3.10;;
8538;SDS011;4307;53.868;11.680;2023-05-07T11:44:16;3.33;;;3.00;;
8538;SDS011;4307;53.868;11.680;2023-05-07T11:46:43;2.93;;;2.67;;
8538;SDS011;4307;53.868;11.680;2023-05-07T11:49:10;6.37;;;2.83;;
8538;SDS011;4307;53.868;11.680;2023-05-07T11:51:38;5.03;;;2.90;;
8538;SDS011;4307;53.868;11.680;2023-05-07T11:54:05;3.00;;;2.63;;
8538;SDS011;4307;53.868;11.680;2023-05-07T11:56:36;2.87;;;2.63;;
8538;SDS011;4307;53.868;11.680;2023-05-07T11:59:03;3.70;;;3.40;;
8538;SDS011;4307;53.868;11.680;2023-05-07T12:01:30;4.53;;;2.87;;
8538;SDS011;4307;53.868;11.680;2023-05-07T12:03:57;3.20;;;2.70;;
8538;SDS011;4307;53.868;11.680;2023-05-07T12:06:23;7.83;;;2.83;;
8538;SDS011;4307;53.868;11.680;2023-05-07T12:08:52;2.93;;;2.73;;
8538;SDS011;4307;53.868;11.680;2023-05-07T12:11:22;3.93;;;2.80;;
8538;SDS011;4307;53.868;11.680;2023-05-07T12:13:50;3.70;;;2.60;;
8538;SDS011;4307;53.868;11.680;2023-05-07T12:16:16;2.57;;;2.37;;
8538;SDS011;4307;53.868;11.680;2023-05-07T12:18:44;3.23;;;2.60;;
8538;SDS011;4307;53.868;11.680;2023-05-07T12:21:11;3.47;;;2.67;;
8538;SDS011;4307;53.868;11.680;2023-05-07T12:23:38;2.80;;;2.60;;
8538;SDS011;4307;53.868;11.680;2023-05-07T12:26:06;3.63;;;3.23;;
8538;SDS011;4307;53.868;11.680;2023-05-07T12:28:37;3.20;;;2.77;;
8538;SDS011;4307;53.868;11.680;2023-05-07T12:31:05;3.20;;;2.70;;
8538;SDS011;4307;53.868;11.680;2023-05-07T12:33:32;4.63;;;3.10;;
8538;SDS011;4307;53.868;11.680;2023-05-07T12:36:02;3.60;;;3.30;;
8538;SDS011;4307;53.868;11.680;2023-05-07T12:38:34;3.53;;;3.20;;
8538;SDS011;4307;53.868;11.680;2023-05-07T12:41:02;5.50;;;3.10;;
8538;SDS011;4307;53.868;11.680;2023-05-07T12:43:30;4.77;;;3.30;;
8538;SDS011;4307;53.868;11.680;2023-05-07T12:45:59;3.97;;;3.00;;
8538;SDS011;4307;53.868;11.680;2023-05-07T12:48:27;3.20;;;2.90;;
8538;SDS011;4307;53.868;11.680;2023-05-07T12:50:54;3.27;;;3.00;;
8538;SDS011;4307;53.868;11.680;2023-05-07T12:53:22;4.90;;;3.70;;
8538;SDS011;4307;53.868;11.680;2023-05-07T12:55:51;4.40;;;3.50;;
8538;SDS011;4307;53.868;11.680;2023-05-07T12:58:19;3.23;;;2.93;;
8538;SDS011;4307;53.868;11.680;2023-05-07T13:00:48;5.17;;;2.77;;
8538;SDS011;4307;53.868;11.680;2023-05-07T13:03:22;3.70;;;3.07;;
8538;SDS011;4307;53.868;11.680;2023-05-07T13:05:51;4.17;;;3.40;;
8538;SDS011;4307;53.868;11.680;2023-05-07T13:08:25;3.23;;;2.90;;
8538;SDS011;4307;53.868;11.680;2023-05-07T13:10:52;3.67;;;3.33;;
8538;SDS011;4307;53.868;11.680;2023-05-07T13:13:19;3.87;;;3.17;;
8538;SDS011;4307;53.868;11.680;2023-05-07T13:15:46;4.00;;;3.10;;
8538;SDS011;4307;53.868;11.680;2023-05-07T13:18:14;2.43;;;2.23;;
8538;SDS011;4307;53.868;11.680;2023-05-07T13:20:40;3.53;;;2.70;;
8538;SDS011;4307;53.868;11.680;2023-05-07T13:23:07;4.10;;;3.17;;
8538;SDS011;4307;53.868;11.680;2023-05-07T13:25:34;4.20;;;2.67;;
8538;SDS011;4307;53.868;11.680;2023-05-07T13:28:00;3.63;;;2.70;;
8538;SDS011;4307;53.868;11.680;2023-05-07T13:30:27;6.67;;;2.97;;
8538;SDS011;4307;53.868;11.680;2023-05-07T13:32:55;3.27;;;2.97;;
8538;SDS011;4307;53.868;11.680;2023-05-07T13:35:23;4.03;;;3.07;;
8538;SDS011;4307;53.868;11.680;2023-05-07T13:37:50;3.03;;;2.73;;
8538;SDS011;4307;53.868;11.680;2023-05-07T13:40:17;4.23;;;3.57;;
8538;SDS011;4307;53.868;11.680;2023-05-07T13:42:44;3.67;;;3.17;;
8538;SDS011;4307;53.868;11.680;2023-05-07T13:45:10;6.43;;;3.30;;
8538;SDS011;4307;53.868;11.680;2023-05-07T13:47:39;3.43;;;3.10;;
8538;SDS011;4307;53.868;11.680;2023-05-07T13:50:06;5.17;;;3.30;;
8538;SDS011;4307;53.868;11.680;2023-05-07T13:52:34;4.23;;;3.30;;
8538;SDS011;4307;53.868;11.680;2023-05-07T13:55:01;5.43;;;3.07;;
8538;SDS011;4307;53.868;11.680;2023-05-07T13:57:28;3.80;;;3.30;;
8538;SDS011;4307;53.868;11.680;2023-05-07T13:59:55;3.67;;;3.20;;
8538;SDS011;4307;53.868;11.680;2023-05-07T14:02:21;4.80;;;3.30;;
8538;SDS011;4307;53.868;11.680;2023-05-07T14:04:48;4.07;;;3.10;;
8538;SDS011;4307;53.868;11.680;2023-05-07T14:07:14;3.93;;;2.90;;
8538;SDS011;4307;53.868;11.680;2023-05-07T14:09:42;5.77;;;3.50;;
8538;SDS011;4307;53.868;11.680;2023-05-07T14:12:10;4.17;;;3.10;;
8538;SDS011;4307;53.868;11.680;2023-05-07T14:14:37;3.80;;;3.30;;
8538;SDS011;4307;53.868;11.680;2023-05-07T14:17:03;4.17;;;3.20;;
8538;SDS011;4307;53.868;11.680;2023-05-07T14:19:30;3.23;;;2.97;;
8538;SDS011;4307;53.868;11.680;2023-05-07T14:21:57;3.80;;;3.00;;
8538;SDS011;4307;53.868;11.680;2023-05-07T14:24:23;3.27;;;3.07;;
8538;SDS011;4307;53.868;11.680;2023-05-07T14:26:52;3.50;;;3.20;;
8538;SDS011;4307;53.868;11.680;2023-05-07T14:29:18;3.43;;;3.13;;
8538;SDS011;4307;53.868;11.680;2023-05-07T14:31:45;4.07;;;3.03;;
8538;SDS011;4307;53.868;11.680;2023-05-07T14:34:12;4.77;;;3.20;;
8538;SDS011;4307;53.868;11.680;2023-05-07T14:36:38;3.20;;;2.90;;
8538;SDS011;4307;53.868;11.680;2023-05-07T14:39:05;4.30;;;3.23;;
8538;SDS011;4307;53.868;11.680;2023-05-07T14:41:31;3.30;;;2.97;;
8538;SDS011;4307;53.868;11.680;2023-05-07T14:44:00;2.87;;;2.67;;
8538;SDS011;4307;53.868;11.680;2023-05-07T14:46:28;3.00;;;2.80;;
8538;SDS011;4307;53.868;11.680;2023-05-07T14:48:55;2.70;;;2.50;;
8538;SDS011;4307;53.868;11.680;2023-05-07T14:51:22;3.03;;;2.73;;
8538;SDS011;4307;53.868;11.680;2023-05-07T14:53:49;3.87;;;3.33;;
8538;SDS011;4307;53.868;11.680;2023-05-07T14:56:16;4.07;;;3.30;;
8538;SDS011;4307;53.868;11.680;2023-05-07T14:58:43;3.20;;;2.90;;
8538;SDS011;4307;53.868;11.680;2023-05-07T15:01:13;5.17;;;3.50;;
8538;SDS011;4307;53.868;11.680;2023-05-07T15:03:40;3.97;;;3.03;;
8538;SDS011;4307;53.868;11.680;2023-05-07T15:06:07;3.33;;;2.97;;
8538;SDS011;4307;53.868;11.680;2023-05-07T15:08:34;5.70;;;3.37;;
8538;SDS011;4307;53.868;11.680;2023-05-07T15:11:00;5.03;;;3.03;;
8538;SDS011;4307;53.868;11.680;2023-05-07T15:13:27;3.40;;;3.00;;